• Join FlightAware (Why Join?)
  • Login
  • US Flag 
08:40AM EDT


 

Airport Tracker/Info


-or-


 

Live Flight TrackerFlight Track Log ✈ N53442 ✈ 04-Jul-2013 ✈ KEWR - KIAH

Flight Track Log - Related Links

Times and Time Zones

All times are in EDT time to prevent confusion due to time zone crossing. See the N53442 flight status page for this flight to view local times or setup timezone preferences in your user account.

Time Position Orientation Groundspeed Altitude Reporting Facility
EDT Latitude Longitude Course Direction KTS MPH feet Rate Location/Type
06:56AM 40.6733 -74.1808 206° Southwest 174 200 200  Level FlightAware ADS-B
06:56AM 40.6679 -74.1831 198° South 174 200 500 3,000 Climbing FlightAware ADS-B
06:56AM 40.6618 -74.1831 180° South 173 199 900 2,460 Climbing FlightAware ADS-B
06:56AM 40.6539 -74.1822 175° South 181 208 1,200 1,560 Climbing FlightAware ADS-B
06:56AM 40.6495 -74.1829 187° South 187 215 1,300 1,320 Climbing FlightAware ADS-B
06:57AM 40.6464 -74.1840 195° South 190 219 1,400 1,320 Climbing FlightAware ADS-B
06:57AM 40.6423 -74.1862 202° Southwest 191 220 1,500 1,800 Climbing FlightAware ADS-B
06:57AM 40.6380 -74.1898 212° Southwest 195 224 1,700 1,620 Climbing FlightAware ADS-B
06:57AM 40.6343 -74.1937 219° Southwest 198 228 1,800 1,140 Climbing FlightAware ADS-B
06:57AM 40.6235 -74.2069 223° Southwest 218 251 2,100 2,040 Climbing FlightAware ADS-B
06:58AM 40.5966 -74.2413 224° Southwest 229 264 3,500 2,400 Climbing FlightAware ADS-B
06:58AM 40.5752 -74.2786 233° Southwest 256 295 4,800 2,520 Climbing FlightAware ADS-B
06:58AM 40.5744 -74.2834 258° West 243 280 5,000 3,000 Climbing FlightAware ADS-B
06:58AM 40.5743 -74.2843 262° West 256 295 5,000 3,420 Level FlightAware ADS-B
06:58AM 40.5737 -74.2938 265° West 255 293 5,400 3,720 Climbing FlightAware ADS-B
06:58AM 40.5737 -74.2964 270° West 255 293 5,500 2,400 Climbing FlightAware ADS-B
06:58AM 40.5738 -74.3005 272° West 256 295 5,600 2,220 Climbing FlightAware ADS-B
06:59AM 40.5741 -74.3209 271° West 260 299 6,100 2,520 Climbing FlightAware ADS-B
06:59AM 40.5741 -74.3226 270° West 261 300 6,200 3,000 Climbing FlightAware ADS-B
06:59AM 40.5743 -74.3277 273° West 262 302 6,300 3,000 Climbing FlightAware ADS-B
06:59AM 40.5748 -74.3331 277° West 263 303 6,500 3,000 Climbing FlightAware ADS-B
06:59AM 40.5749 -74.3337 282° West 264 304 6,500 3,000 Level FlightAware ADS-B
06:59AM 40.5759 -74.3399 282° West 266 306 6,700 3,000 Climbing FlightAware ADS-B
06:59AM 40.5765 -74.3430 284° West 266 306 6,800 2,220 Climbing FlightAware ADS-B
06:59AM 40.5786 -74.3516 288° West 268 308 7,000 2,820 Climbing FlightAware ADS-B
06:59AM 40.5848 -74.3761 288° West 269 310 7,800 3,120 Climbing FlightAware ADS-B
06:59AM 40.5854 -74.3782 291° West 269 310 7,900 2,520 Climbing FlightAware ADS-B
06:59AM 40.5877 -74.3867 290° West 272 313 8,100 2,520 Climbing FlightAware ADS-B
06:59AM 40.5884 -74.3890 292° West 272 313 8,200 2,760 Climbing FlightAware ADS-B
07:00AM 40.5947 -74.4105 291° West 275 316 8,800 2,460 Climbing FlightAware ADS-B
07:00AM 40.6015 -74.4338 291° West 279 321 9,400 2,520 Climbing FlightAware ADS-B
07:00AM 40.6069 -74.4521 291° West 281 323 9,900 1,560 Climbing FlightAware ADS-B
07:01AM 40.6217 -74.5028 291° West 311 358 10,500 1,320 Climbing FlightAware ADS-B
07:01AM 40.6378 -74.5598 290° West 325 374 11,300 1,500 Climbing FlightAware ADS-B
07:02AM 40.6542 -74.6193 290° West 331 381 12,100 1,500 Climbing FlightAware ADS-B
07:02AM 40.6575 -74.6332 287° West 331 381 12,300 1,380 Climbing FlightAware ADS-B
07:02AM 40.6588 -74.6433 280° West 329 379 12,400 1,620 Climbing FlightAware ADS-B
07:02AM 40.6593 -74.6556 273° West 326 375 12,600 1,500 Climbing FlightAware ADS-B
07:02AM 40.6589 -74.6677 268° West 325 374 12,700 1,260 Climbing FlightAware ADS-B
07:02AM 40.6573 -74.6826 262° West 323 372 12,900 1,200 Climbing FlightAware ADS-B
07:02AM 40.6544 -74.6974 256° West 322 371 13,000 960 Climbing FlightAware ADS-B
07:03AM 40.6386 -74.7534 250° West 329 379 13,500 1,260 Climbing FlightAware ADS-B
07:03AM 40.6222 -74.8107 249° West 333 383 14,300 1,620 Climbing FlightAware ADS-B
07:04AM 40.6053 -74.8696 249° West 339 390 15,200 1,560 Climbing FlightAware ADS-B
07:04AM 40.5886 -74.9279 249° West 344 396 15,900 1,200 Climbing FlightAware ADS-B
07:05AM 40.5714 -74.9874 249° West 347 399 16,400 900 Climbing FlightAware ADS-B
07:05AM 40.5622 -75.0146 246° West 344 396 16,600 600 Climbing FlightAware ADS-B
07:05AM 40.5489 -75.0437 239° Southwest 344 396 16,700 180 Climbing FlightAware ADS-B
07:05AM 40.5372 -75.0636 232° Southwest 345 397 16,700  Level FlightAware ADS-B
07:06AM 40.5067 -75.1118 230° Southwest 344 396 16,700 180 Level FlightAware ADS-B
07:06AM 40.4753 -75.1616 230° Southwest 344 396 16,900 1,080 Climbing FlightAware ADS-B
07:07AM 40.4444 -75.2106 230° Southwest 351 404 17,800 1,800 Climbing FlightAware ADS-B
07:07AM 40.4131 -75.2601 230° Southwest 353 406 18,700 1,740 Climbing FlightAware ADS-B
07:08AM 40.3805 -75.3116 230° Southwest 357 411 19,600 1,740 Climbing FlightAware ADS-B
07:08AM 40.3484 -75.3622 230° Southwest 361 415 20,500 1,800 Climbing FlightAware ADS-B
07:09AM 40.3163 -75.4128 230° Southwest 364 419 21,400 1,380 Climbing FlightAware ADS-B
07:09AM 40.2834 -75.4644 230° Southwest 370 426 21,900 960 Climbing FlightAware ADS-B
07:10AM 40.2500 -75.5167 230° Southwest 373 429 22,400 1,020 Climbing FlightAware ADS-B
07:10AM 40.2265 -75.5538 230° Southwest 377 434 22,800 960 Climbing FlightAware ADS-B
07:10AM 40.2184 -75.5681 233° Southwest 380 437 22,900 900 Climbing FlightAware ADS-B
07:11AM 40.1890 -75.6264 237° Southwest 387 445 23,400 1,080 Climbing FlightAware ADS-B
07:12AM 40.1580 -75.6879 237° Southwest 391 450 24,000 1,020 Climbing FlightAware ADS-B
07:12AM 40.1276 -75.7479 236° Southwest 393 452 24,500 1,260 Climbing FlightAware ADS-B
07:13AM 40.0973 -75.8082 237° Southwest 396 456 25,300 1,500 Climbing FlightAware ADS-B
07:13AM 40.0665 -75.8691 237° Southwest 399 459 26,000 1,140 Climbing FlightAware ADS-B
07:14AM 40.0354 -75.9305 237° Southwest 403 464 26,500 960 Climbing FlightAware ADS-B
07:14AM 40.0045 -75.9914 236° Southwest 400 460 27,000 900 Climbing FlightAware ADS-B
07:15AM 39.9737 -76.0521 237° Southwest 400 460 27,400 780 Climbing FlightAware ADS-B
07:15AM 39.9420 -76.1141 236° Southwest 410 472 27,800 540 Climbing FlightAware ADS-B
07:16AM 39.9102 -76.1765 236° Southwest 414 476 28,000 360 Climbing FlightAware ADS-B
07:16AM 39.8771 -76.2410 236° Southwest 417 480 28,200 720 Climbing FlightAware ADS-B
07:17AM 39.8421 -76.3093 236° Southwest 423 487 28,800 1,020 Climbing FlightAware ADS-B
07:17AM 39.8092 -76.3734 236° Southwest 427 491 29,300 840 Climbing FlightAware ADS-B
07:18AM 39.7759 -76.4382 236° Southwest 432 497 29,700 660 Climbing FlightAware ADS-B
07:18AM 39.7401 -76.5073 236° Southwest 435 501 30,000 720 Climbing FlightAware ADS-B
07:19AM 39.7060 -76.5730 236° Southwest 435 501 30,500 1,080 Climbing FlightAware ADS-B
07:19AM 39.6725 -76.6380 236° Southwest 433 498 31,100 1,080 Climbing FlightAware ADS-B
07:20AM 39.6376 -76.7052 236° Southwest 435 501 31,600 960 Climbing FlightAware ADS-B
07:20AM 39.6033 -76.7709 236° Southwest 435 501 32,100 960 Climbing FlightAware ADS-B
07:21AM 39.5693 -76.8362 236° Southwest 435 501 32,600 900 Climbing FlightAware ADS-B
07:21AM 39.5353 -76.9013 236° Southwest 436 502 33,000 480 Climbing FlightAware ADS-B
07:22AM 39.5136 -76.9423 236° Southwest 436 502 33,000  Level FlightAware ADS-B
07:22AM 39.5006 -76.9636 232° Southwest 436 502 33,000  Level FlightAware ADS-B
07:22AM 39.4905 -76.9783 228° Southwest 434 499 33,000  Level FlightAware ADS-B
07:22AM 39.4775 -76.9953 225° Southwest 435 501 33,000 300 Level FlightAware ADS-B
07:22AM 39.4623 -77.0128 222° Southwest 435 501 33,100 840 Climbing FlightAware ADS-B
07:23AM 39.4133 -77.0646 219° Southwest 436 502 33,600 840 Climbing FlightAware ADS-B
07:23AM 39.3658 -77.1147 219° Southwest 436 502 34,000 360 Climbing FlightAware ADS-B
07:24AM 39.3169 -77.1658 219° Southwest 436 502 34,000  Level FlightAware ADS-B
07:24AM 39.2672 -77.2179 219° Southwest 434 499 34,000  Level FlightAware ADS-B
07:25AM 39.2196 -77.2678 219° Southwest 435 501 34,000  Level FlightAware ADS-B
07:25AM 39.1723 -77.3172 219° Southwest 435 501 34,000  Level FlightAware ADS-B
07:26AM 39.1141 -77.3779 219° Southwest 435 501 34,000  Level FlightAware ADS-B
07:26AM 39.0652 -77.4291 219° Southwest 434 499 34,000  Level FlightAware ADS-B
07:27AM 39.0152 -77.4810 219° Southwest 433 498 34,000  Level FlightAware ADS-B
07:27AM 38.9670 -77.5308 219° Southwest 431 496 34,000  Level FlightAware ADS-B
07:28AM 38.9204 -77.5788 219° Southwest 430 495 34,000  Level FlightAware ADS-B
07:28AM 38.8733 -77.6273 219° Southwest 431 496 34,000  Level FlightAware ADS-B
07:29AM 38.8238 -77.6781 219° Southwest 432 497 34,000  Level FlightAware ADS-B
07:30AM 38.7700 -77.7330 219° Southwest 432 497 34,000  Level FlightAware
07:30AM 38.7587 -77.7450 220° Southwest 432 497 34,000  Level FlightAware ADS-B
07:30AM 38.7072 -77.7978 219° Southwest 433 498 34,000  Level FlightAware ADS-B
07:31AM 38.6430 -77.8680 221° Southwest 437 503 34,000  Level FlightAware
07:32AM 38.5865 -77.9587 231° Southwest 439 505 34,000  Level FlightAware ADS-B
07:32AM 38.5410 -78.0360 233° Southwest 438 504 34,000 240 Level FlightAware
07:33AM 38.4880 -78.1270 233° Southwest 442 509 34,400 600 Climbing FlightAware
07:34AM 38.4360 -78.2140 233° Southwest 445 512 34,900 660 Climbing FlightAware
07:34AM 38.3850 -78.3010 233° Southwest 444 511 35,400 720 Climbing FlightAware
07:35AM 38.3350 -78.3840 232° Southwest 443 510 35,900 420 Climbing FlightAware
07:36AM 38.2800 -78.4770 233° Southwest 443 510 36,000 60 Climbing FlightAware
07:36AM 38.2300 -78.5600 233° Southwest 442 509 36,000  Level FlightAware
07:37AM 38.1770 -78.6490 233° Southwest 439 505 36,000  Level FlightAware
07:38AM 38.1360 -78.7180 233° Southwest 439 505 36,000  Level FlightAware
07:38AM 38.0920 -78.7900 232° Southwest 441 507 36,000  Level FlightAware
07:39AM 38.0130 -78.9210 233° Southwest 442 509 36,000  Level FlightAware
07:40AM 37.9670 -78.9970 232° Southwest 444 511 36,000  Level FlightAware
07:41AM 37.9150 -79.0830 233° Southwest 445 512 36,000  Level FlightAware
07:41AM 37.8710 -79.1660 236° Southwest 448 516 36,000  Level FlightAware
07:42AM 37.8210 -79.2670 238° Southwest 449 517 36,000  Level FlightAware
07:43AM 37.7840 -79.3610 244° Southwest 450 518 36,000  Level FlightAware
07:44AM 37.7440 -79.4650 244° Southwest 451 519 36,000  Level FlightAware
07:44AM 37.7070 -79.5610 244° Southwest 451 519 36,000  Level FlightAware
07:45AM 37.6670 -79.6650 244° Southwest 452 520 36,000  Level FlightAware
07:46AM 37.6340 -79.7470 243° Southwest 452 520 36,000  Level FlightAware
07:46AM 37.5970 -79.8410 244° Southwest 452 520 36,000  Level FlightAware
07:47AM 37.5460 -79.9740 244° Southwest 452 520 36,000  Level FlightAware
07:48AM 37.5040 -80.0790 243° Southwest 450 518 36,000  Level FlightAware
07:49AM 37.4630 -80.1820 243° Southwest 449 517 36,000  Level FlightAware
07:49AM 37.4300 -80.2660 244° Southwest 447 514 36,000  Level FlightAware
07:50AM 37.3860 -80.3780 244° Southwest 446 513 36,000  Level FlightAware
07:51AM 37.3520 -80.4620 243° Southwest 445 512 36,000  Level FlightAware
07:51AM 37.3080 -80.5720 243° Southwest 442 509 36,000  Level FlightAware
07:52AM 37.2720 -80.6620 243° Southwest 440 506 36,000  Level FlightAware
07:53AM 37.2310 -80.7640 243° Southwest 437 503 36,000  Level FlightAware
07:53AM 37.1960 -80.8490 243° Southwest 437 503 36,000  Level FlightAware
07:54AM 37.1580 -80.9440 243° Southwest 437 503 36,000  Level FlightAware
07:55AM 37.0960 -81.0980 243° Southwest 435 501 36,000  Level FlightAware
07:56AM 37.0544 -81.1985 243° Southwest 434 499 36,000  Level FlightAware ADS-B
07:57AM 37.0262 -81.2675 243° Southwest 433 498 36,000  Level FlightAware ADS-B
07:57AM 37.0860 -81.1220 63° Northeast 435 501 36,000  Level FlightAware
07:58AM 36.9567 -81.4368 243° Southwest 433 498 36,000  Level FlightAware ADS-B
07:58AM 36.9270 -81.5100 243° Southwest 432 497 36,000  Level FlightAware
07:59AM 36.8941 -81.5740 237° Southwest 429 494 36,000  Level FlightAware ADS-B
08:00AM 36.8410 -81.6690 235° Southwest 427 491 36,000  Level FlightAware
08:00AM 36.8107 -81.7228 235° Southwest 427 491 36,000 -240 Level FlightAware ADS-B
08:01AM 36.7765 -81.7836 235° Southwest 428 493 35,800 -900 Descending FlightAware ADS-B
08:01AM 36.7397 -81.8486 235° Southwest 430 495 35,100 -720 Descending FlightAware ADS-B
08:02AM 36.6976 -81.9227 235° Southwest 430 495 35,000 -120 Descending FlightAware ADS-B
08:02AM 36.6611 -81.9875 235° Southwest 430 495 35,000  Level FlightAware ADS-B
08:03AM 36.6269 -82.0478 235° Southwest 429 494 35,000  Level FlightAware ADS-B
08:03AM 36.5912 -82.1104 235° Southwest 430 495 35,000  Level FlightAware ADS-B
08:04AM 36.5566 -82.1712 235° Southwest 434 499 35,000  Level FlightAware ADS-B
08:04AM 36.5206 -82.2343 235° Southwest 435 501 35,000  Level FlightAware ADS-B
08:05AM 36.4852 -82.2964 235° Southwest 435 501 35,000 -600 Level FlightAware ADS-B
08:05AM 36.4504 -82.3571 235° Southwest 433 498 34,400 -1,020 Descending FlightAware ADS-B
08:06AM 36.4149 -82.4194 235° Southwest 434 499 34,000 -420 Descending FlightAware ADS-B
08:06AM 36.3794 -82.4811 234° Southwest 432 497 34,000  Level FlightAware ADS-B
08:07AM 36.3495 -82.5327 234° Southwest 431 496 34,000  Level FlightAware ADS-B
08:07AM 36.3144 -82.5936 234° Southwest 430 495 34,000  Level FlightAware ADS-B
08:08AM 36.2787 -82.6554 234° Southwest 430 495 34,000  Level FlightAware ADS-B
08:08AM 36.2439 -82.7156 234° Southwest 430 495 34,000  Level FlightAware ADS-B
08:09AM 36.2087 -82.7763 234° Southwest 429 494 34,000  Level FlightAware ADS-B
08:09AM 36.1624 -82.8561 234° Southwest 428 493 34,000  Level FlightAware ADS-B
08:10AM 36.1269 -82.9171 234° Southwest 428 493 34,000  Level FlightAware ADS-B
08:11AM 36.0894 -82.9815 234° Southwest 428 493 34,000  Level FlightAware ADS-B
08:11AM 36.0545 -83.0413 234° Southwest 427 491 34,000  Level FlightAware ADS-B
08:12AM 36.0192 -83.1016 234° Southwest 425 489 34,000  Level FlightAware ADS-B
08:12AM 35.9846 -83.1607 234° Southwest 422 486 34,000  Level FlightAware ADS-B
08:13AM 35.9497 -83.2203 234° Southwest 419 482 34,000 -420 Level FlightAware ADS-B
08:13AM 35.9151 -83.2791 234° Southwest 417 480 33,600 -1,140 Descending FlightAware ADS-B
08:14AM 35.8813 -83.3364 234° Southwest 412 474 32,900 -1,380 Descending FlightAware ADS-B
08:14AM 35.8434 -83.4009 234° Southwest 419 482 32,200 -840 Descending FlightAware ADS-B
08:15AM 35.8074 -83.4614 234° Southwest 419 482 32,000 -240 Descending FlightAware ADS-B
08:15AM 35.7728 -83.5196 234° Southwest 418 481 32,000  Level FlightAware ADS-B
08:16AM 35.7371 -83.5799 234° Southwest 416 479 32,000  Level FlightAware ADS-B
08:16AM 35.7010 -83.6407 234° Southwest 414 476 32,000  Level FlightAware ADS-B
08:17AM 35.6807 -83.6749 234° Southwest 414 476 32,000  Level FlightAware ADS-B
08:17AM 35.6700 -83.6951 237° Southwest 417 480 32,000  Level FlightAware ADS-B
08:17AM 35.6418 -83.7586 241° Southwest 421 484 32,000  Level FlightAware ADS-B
08:18AM 35.6127 -83.8248 242° Southwest 425 489 32,000  Level FlightAware ADS-B
08:18AM 35.5843 -83.8889 241° Southwest 425 489 32,000  Level FlightAware ADS-B
08:19AM 35.5548 -83.9554 241° Southwest 423 487 32,000  Level FlightAware ADS-B
08:19AM 35.5266 -84.0188 241° Southwest 422 486 32,000  Level FlightAware ADS-B
08:20AM 35.4983 -84.0822 241° Southwest 421 484 32,000  Level FlightAware ADS-B
08:20AM 35.4702 -84.1450 241° Southwest 419 482 32,000  Level FlightAware ADS-B
08:21AM 35.4423 -84.2075 241° Southwest 418 481 32,000  Level FlightAware ADS-B
08:21AM 35.4140 -84.2706 241° Southwest 418 481 32,000  Level FlightAware ADS-B
08:22AM 35.3849 -84.3352 241° Southwest 418 481 32,000  Level FlightAware ADS-B
08:22AM 35.3570 -84.3974 241° Southwest 416 479 32,000  Level FlightAware ADS-B
08:23AM 35.3269 -84.4641 241° Southwest 417 480 32,000  Level FlightAware ADS-B
08:23AM 35.2989 -84.5259 241° Southwest 417 480 32,000  Level FlightAware ADS-B
08:24AM 35.2697 -84.5903 241° Southwest 417 480 32,000  Level FlightAware ADS-B
08:24AM 35.2411 -84.6535 241° Southwest 416 479 32,000  Level FlightAware ADS-B
08:25AM 35.2127 -84.7160 241° Southwest 418 481 32,000  Level FlightAware ADS-B
08:25AM 35.1842 -84.7789 241° Southwest 417 480 32,000  Level FlightAware ADS-B
08:26AM 35.1544 -84.8440 241° Southwest 417 480 32,000  Level FlightAware ADS-B
08:27AM 35.1110 -84.9400 241° Southwest 415 478 32,000  Level FlightAware
08:27AM 35.1030 -84.9566 240° Southwest 415 478 32,000  Level FlightAware ADS-B
08:27AM 35.0720 -85.0240 241° Southwest 414 476 32,000  Level FlightAware
08:28AM 35.0563 -85.0585 241° Southwest 415 478 32,000  Level FlightAware ADS-B
08:28AM 35.0167 -85.1443 241° Southwest 415 478 32,000  Level FlightAware ADS-B
08:29AM 34.9880 -85.2068 241° Southwest 415 478 32,000  Level FlightAware ADS-B
08:29AM 34.9595 -85.2687 241° Southwest 415 478 32,000  Level FlightAware ADS-B
08:30AM 34.9311 -85.3300 241° Southwest 416 479 32,000  Level FlightAware ADS-B
08:30AM 34.9025 -85.3917 241° Southwest 416 479 32,000  Level FlightAware ADS-B
08:31AM 34.8454 -85.5146 241° Southwest 417 480 32,000  Level FlightAware ADS-B
08:32AM 34.8133 -85.5833 240° Southwest 417 480 32,000  Level FlightAware ADS-B
08:33AM 34.7786 -85.6577 240° Southwest 417 480 32,000  Level FlightAware ADS-B
08:33AM 34.7420 -85.7359 240° Southwest 420 483 32,000  Level FlightAware ADS-B
08:34AM 34.6825 -85.8629 240° Southwest 420 483 32,000  Level FlightAware ADS-B
08:35AM 34.6531 -85.9251 240° Southwest 421 484 32,000  Level FlightAware ADS-B
08:35AM 34.6178 -86.0000 240° Southwest 416 479 32,000  Level Atlanta Center
08:36AM 34.5614 -86.1222 241° Southwest 416 479 32,000  Level Atlanta Center
08:37AM 34.5031 -86.2417 239° Southwest 416 479 32,000 420 Level Atlanta Center
08:43AM 34.1710 -86.9350 239° Southwest 408 470 35,000 420 Climbing FlightAware
08:44AM 34.1370 -87.0070 240° Southwest 408 470 35,100 60 Climbing FlightAware
08:44AM 34.1080 -87.0670 240° Southwest 408 470 35,100  Level FlightAware
08:45AM 34.0730 -87.1390 240° Southwest 408 470 35,100  Level FlightAware
08:46AM 34.0350 -87.2200 241° Southwest 408 470 35,100  Level FlightAware
08:47AM 34.0060 -87.2800 240° Southwest 408 470 35,100  Level FlightAware
08:47AM 33.9670 -87.3600 240° Southwest 408 470 35,100  Level FlightAware
08:48AM 33.9380 -87.4210 240° Southwest 408 470 35,100  Level FlightAware
08:49AM 33.9000 -87.5010 240° Southwest 408 470 35,100  Level FlightAware
08:49AM 33.8710 -87.5610 240° Southwest 408 470 35,100  Level FlightAware
08:50AM 33.8320 -87.6430 240° Southwest 408 470 35,100  Level FlightAware
08:51AM 33.8030 -87.7040 240° Southwest 408 470 35,100  Level FlightAware
08:51AM 33.7730 -87.7650 239° Southwest 408 470 35,100  Level FlightAware
08:52AM 33.7240 -87.8670 240° Southwest 408 470 35,100  Level FlightAware
08:53AM 33.6950 -87.9270 240° Southwest 408 470 35,100 480 Level FlightAware
08:54AM 33.5406 -88.2089 240° Southwest 410 472 36,000 420 Climbing Memphis Center
08:55AM 33.4800 -88.3400 241° Southwest 410 472 36,000  Level Memphis Center
08:56AM 33.4214 -88.4531 238° Southwest 410 472 36,000  Level Memphis Center
08:57AM 33.3625 -88.5689 239° Southwest 410 472 36,000  Level Memphis Center
08:58AM 33.3036 -88.6844 239° Southwest 410 472 36,000  Level Memphis Center
08:59AM 33.2444 -88.7997 238° Southwest 410 472 36,000  Level Memphis Center
09:00AM 33.1875 -88.9125 239° Southwest 410 472 36,000  Level Memphis Center
09:01AM 33.1303 -89.0225 238° Southwest 410 472 36,000  Level Memphis Center
09:02AM 33.0708 -89.1375 238° Southwest 410 472 36,000  Level Memphis Center
09:03AM 33.0156 -89.2472 239° Southwest 410 472 36,000  Level Memphis Center
09:04AM 32.9561 -89.3619 238° Southwest 410 472 36,000  Level Memphis Center
09:05AM 32.8964 -89.4739 238° Southwest 410 472 36,000  Level Memphis Center
09:06AM 32.8344 -89.5833 236° Southwest 410 472 36,000  Level Memphis Center
09:07AM 32.7767 -89.7000 240° Southwest 410 472 36,000  Level Memphis Center
09:08AM 32.7167 -89.8117 237° Southwest 410 472 36,000  Level Memphis Center
09:09AM 32.6544 -89.9328 239° Southwest 410 472 36,000  Level Memphis Center
09:10AM 32.5964 -90.0417 238° Southwest 410 472 36,000  Level Memphis Center
09:11AM 32.5403 -90.1503 239° Southwest 405 466 36,000  Level Memphis Center
09:12AM 32.4819 -90.2589 238° Southwest 400 460 36,000  Level Memphis Center
09:13AM 32.4297 -90.3572 238° Southwest 400 460 36,000  Level Memphis Center
09:14AM 32.3733 -90.4656 238° Southwest 400 460 36,000  Level Memphis Center
09:15AM 32.3169 -90.5711 238° Southwest 394 453 36,000  Level Memphis Center
09:16AM 32.2581 -90.6792 237° Southwest 394 453 36,000  Level Memphis Center
09:17AM 32.2014 -90.7844 238° Southwest 394 453 36,000  Level Memphis Center
09:18AM 32.1356 -90.9081 238° Southwest 385 443 36,000  Level Houston Center
09:19AM 32.0783 -91.0153 238° Southwest 387 445 36,000 -300 Level Houston Center
09:25AM 31.7322 -91.6471 238° Southwest 373 429 34,000 -360 Descending FlightAware ADS-B
09:26AM 31.7041 -91.6982 237° Southwest 373 429 34,000  Level FlightAware ADS-B
09:27AM 31.6497 -91.7965 237° Southwest 374 430 34,000  Level FlightAware ADS-B
09:27AM 31.6106 -91.8674 237° Southwest 375 432 34,000  Level FlightAware ADS-B
09:28AM 31.5712 -91.9384 237° Southwest 375 432 34,000  Level FlightAware ADS-B
09:29AM 31.5371 -91.9998 237° Southwest 375 432 34,000  Level FlightAware ADS-B
09:30AM 31.4363 -92.1804 237° Southwest 377 434 34,000  Level FlightAware ADS-B
09:31AM 31.3986 -92.2481 237° Southwest 378 435 34,000  Level FlightAware ADS-B
09:32AM 31.3693 -92.3008 237° Southwest 378 435 34,000  Level FlightAware ADS-B
09:32AM 31.3399 -92.3531 237° Southwest 378 435 34,000  Level FlightAware ADS-B
09:33AM 31.3104 -92.4056 237° Southwest 379 436 34,000  Level FlightAware ADS-B
09:35AM 31.2003 -92.6024 237° Southwest 379 436 34,000  Level FlightAware ADS-B
09:35AM 31.1593 -92.6758 237° Southwest 378 435 34,000  Level FlightAware ADS-B
09:36AM 31.1292 -92.7295 237° Southwest 378 435 34,000  Level FlightAware ADS-B
09:36AM 31.0926 -92.7952 237° Southwest 378 435 34,000  Level FlightAware ADS-B
09:37AM 31.0604 -92.8528 237° Southwest 378 435 34,000  Level FlightAware ADS-B
09:37AM 31.0301 -92.9066 237° Southwest 378 435 34,000  Level FlightAware ADS-B
09:38AM 31.0013 -92.9580 237° Southwest 378 435 34,000  Level FlightAware ADS-B
09:38AM 30.9723 -93.0096 237° Southwest 378 435 34,000  Level FlightAware ADS-B
09:39AM 30.9427 -93.0621 237° Southwest 378 435 34,000  Level FlightAware ADS-B
09:40AM 30.9138 -93.1132 237° Southwest 378 435 34,000 -300 Level FlightAware ADS-B
09:40AM 30.8847 -93.1649 237° Southwest 378 435 33,700 -840 Descending FlightAware ADS-B
09:41AM 30.8547 -93.2178 237° Southwest 378 435 33,200 -1,020 Descending FlightAware ADS-B
09:41AM 30.8258 -93.2688 237° Southwest 381 438 32,700 -900 Descending FlightAware ADS-B
09:42AM 30.7958 -93.3219 237° Southwest 386 444 32,300 -900 Descending FlightAware ADS-B
09:42AM 30.7659 -93.3748 237° Southwest 394 453 31,800 -1,020 Descending FlightAware ADS-B
09:43AM 30.7352 -93.4286 236° Southwest 400 460 31,300 -1,620 Descending FlightAware ADS-B
09:43AM 30.7047 -93.4823 237° Southwest 396 456 30,200 -2,220 Descending FlightAware ADS-B
09:44AM 30.6745 -93.5352 236° Southwest 389 448 29,100 -2,220 Descending FlightAware ADS-B
09:44AM 30.6446 -93.5874 236° Southwest 382 440 28,000 -2,220 Descending FlightAware ADS-B
09:45AM 30.6149 -93.6393 236° Southwest 377 434 26,900 -2,100 Descending FlightAware ADS-B
09:45AM 30.5862 -93.6896 236° Southwest 371 427 25,900 -1,980 Descending FlightAware ADS-B
09:46AM 30.5579 -93.7390 236° Southwest 366 421 24,900 -2,100 Descending FlightAware ADS-B
09:46AM 30.5245 -93.7971 236° Southwest 359 413 23,600 -2,040 Descending FlightAware ADS-B
09:47AM 30.4947 -93.8489 236° Southwest 355 409 22,600 -1,980 Descending FlightAware ADS-B
09:47AM 30.4670 -93.8973 236° Southwest 363 418 21,600 -1,980 Descending FlightAware ADS-B
09:48AM 30.4381 -93.9476 236° Southwest 365 420 20,600 -2,040 Descending FlightAware ADS-B
09:48AM 30.4092 -93.9979 236° Southwest 364 419 19,500 -2,100 Descending FlightAware ADS-B
09:50AM 30.2975 -94.1906 236° Southwest 349 402 15,300 -1,980 Descending FlightAware ADS-B
09:52AM 30.2027 -94.3540 236° Southwest 336 387 12,000 -1,800 Descending FlightAware ADS-B
09:52AM 30.1969 -94.3656 240° Southwest 332 382 11,900 -300 Descending FlightAware ADS-B
09:53AM 30.1593 -94.4599 246° West 309 356 11,700 -840 Descending FlightAware ADS-B
09:54AM 30.1239 -94.5481 245° Southwest 302 348 10,200 -1,500 Descending FlightAware ADS-B
09:54AM 30.1150 -94.5706 245° Southwest 301 346 9,800 -1,440 Descending FlightAware ADS-B
09:56AM 30.0802 -94.6588 245° Southwest 288 331 8,400 -1,380 Descending FlightAware ADS-B
09:56AM 30.0716 -94.6799 245° Southwest 287 330 8,100 -1,380 Descending FlightAware ADS-B
09:57AM 30.0310 -94.7816 245° Southwest 280 322 6,400 -1,260 Descending FlightAware ADS-B
09:57AM 30.0225 -94.8028 245° Southwest 271 312 6,300 -420 Descending FlightAware ADS-B
09:58AM 30.0147 -94.8224 245° Southwest 261 300 6,200 -720 Descending FlightAware ADS-B
09:58AM 30.0010 -94.8565 245° Southwest 241 277 5,800 -1,080 Descending FlightAware ADS-B
09:58AM 29.9952 -94.8707 245° Southwest 240 276 5,500 -1,260 Descending FlightAware ADS-B
09:59AM 29.9816 -94.9056 249° West 234 269 4,900 -1,200 Descending FlightAware ADS-B
09:59AM 29.9803 -94.9105 253° West 232 267 4,800 -900 Descending FlightAware ADS-B
09:59AM 29.9781 -94.9227 260° West 226 260 4,700 -960 Descending FlightAware ADS-B
09:59AM 29.9776 -94.9268 262° West 225 259 4,600 -1,200 Descending FlightAware ADS-B
09:59AM 29.9772 -94.9350 267° West 220 253 4,500 -900 Descending FlightAware ADS-B
10:00AM 29.9774 -95.0192 270° West 201 231 3,400 -840 Descending FlightAware ADS-B
10:01AM 29.9774 -95.0353 270° West 198 228 3,300 -420 Descending FlightAware ADS-B
10:01AM 29.9774 -95.0705 271° West 194 223 3,100 -420 Descending FlightAware ADS-B
10:01AM 29.9774 -95.0866 270° West 195 224 3,000 -240 Descending FlightAware ADS-B
10:02AM 29.9774 -95.0993 270° West 196 226 3,000 -240 Level FlightAware ADS-B
10:02AM 29.9775 -95.1153 270° West 197 227 2,900 -540 Descending FlightAware ADS-B
10:02AM 29.9775 -95.1472 270° West 196 226 2,600 -780 Descending FlightAware ADS-B
10:03AM 29.9776 -95.1573 271° West 193 222 2,400 -1,140 Descending FlightAware ADS-B
10:03AM 29.9776 -95.1804 271° West 189 217 2,000 -1,020 Descending FlightAware ADS-B
10:03AM 29.9776 -95.1893 270° West 185 213 1,900 -780 Descending FlightAware ADS-B
10:03AM 29.9776 -95.2031 270° West 177 204 1,700 -1,020 Descending FlightAware ADS-B
10:04AM 29.9775 -95.2223 270° West 163 188 1,300 -1,080 Descending FlightAware ADS-B
10:04AM 29.9776 -95.2386 270° West 160 184 1,000 -900 Descending FlightAware ADS-B
10:04AM 29.9777 -95.2512 271° West 156 180 800 -780 Descending FlightAware ADS-B
10:04AM 29.9776 -95.2588 269° West 154 177 700 -600 Descending FlightAware ADS-B
10:05AM 29.9776 -95.2689 270° West 156 180 600 -660 Descending FlightAware ADS-B
10:05AM 29.9776 -95.2821 270° West 160 184 400 -780 Descending FlightAware ADS-B
10:05AM 29.9776 -95.2896 270° West 159 183 300 -900 Descending FlightAware ADS-B
10:05AM 29.9776 -95.2998 270° West 159 183 100 -1,020 Descending FlightAware ADS-B